sensor_id;sensor_type;location;lat;lon;timestamp;pressure;altitude;pressure_sealevel;temperature;humidity
34235;BME280;20500;49.856;20.290;2022-11-15T00:02:56;99274.15;;;3.87;86.35
34235;BME280;20500;49.856;20.290;2022-11-15T00:06:04;99269.61;;;3.87;86.25
34235;BME280;20500;49.856;20.290;2022-11-15T00:09:10;99268.08;;;3.88;86.32
34235;BME280;20500;49.856;20.290;2022-11-15T00:12:15;99269.08;;;3.89;86.42
34235;BME280;20500;49.856;20.290;2022-11-15T00:15:21;99271.47;;;3.87;86.11
34235;BME280;20500;49.856;20.290;2022-11-15T00:18:27;99265.77;;;3.86;86.16
34235;BME280;20500;49.856;20.290;2022-11-15T00:21:31;99260.53;;;3.84;86.22
34235;BME280;20500;49.856;20.290;2022-11-15T00:24:37;99256.03;;;3.85;86.35
34235;BME280;20500;49.856;20.290;2022-11-15T00:27:43;99254.71;;;3.85;86.17
34235;BME280;20500;49.856;20.290;2022-11-15T00:30:48;99252.33;;;3.86;86.07
34235;BME280;20500;49.856;20.290;2022-11-15T00:33:53;99249.95;;;3.82;85.96
34235;BME280;20500;49.856;20.290;2022-11-15T00:36:59;99250.39;;;3.75;85.72
34235;BME280;20500;49.856;20.290;2022-11-15T00:40:06;99247.70;;;3.67;85.72
34235;BME280;20500;49.856;20.290;2022-11-15T00:43:12;99243.80;;;3.63;85.87
34235;BME280;20500;49.856;20.290;2022-11-15T00:46:17;99238.53;;;3.57;85.82
34235;BME280;20500;49.856;20.290;2022-11-15T00:49:23;99239.70;;;3.50;85.81
34235;BME280;20500;49.856;20.290;2022-11-15T00:52:29;99237.57;;;3.46;85.77
34235;BME280;20500;49.856;20.290;2022-11-15T00:55:34;99231.12;;;3.44;85.90
34235;BME280;20500;49.856;20.290;2022-11-15T00:58:40;99232.63;;;3.42;85.83
34235;BME280;20500;49.856;20.290;2022-11-15T01:01:46;99230.98;;;3.41;85.81
34235;BME280;20500;49.856;20.290;2022-11-15T01:04:52;99228.20;;;3.41;85.93
34235;BME280;20500;49.856;20.290;2022-11-15T01:07:57;99228.98;;;3.43;85.85
34235;BME280;20500;49.856;20.290;2022-11-15T01:11:05;99228.48;;;3.42;85.84
34235;BME280;20500;49.856;20.290;2022-11-15T01:14:12;99224.02;;;3.42;85.87
34235;BME280;20500;49.856;20.290;2022-11-15T01:17:17;99223.87;;;3.42;85.68
34235;BME280;20500;49.856;20.290;2022-11-15T01:20:23;99221.00;;;3.42;85.71
34235;BME280;20500;49.856;20.290;2022-11-15T01:23:29;99216.84;;;3.40;85.68
34235;BME280;20500;49.856;20.290;2022-11-15T01:26:35;99214.17;;;3.40;85.65
34235;BME280;20500;49.856;20.290;2022-11-15T01:29:41;99209.66;;;3.34;85.50
34235;BME280;20500;49.856;20.290;2022-11-15T01:32:47;99212.45;;;3.27;85.28
34235;BME280;20500;49.856;20.290;2022-11-15T01:35:53;99211.13;;;3.22;85.36
34235;BME280;20500;49.856;20.290;2022-11-15T01:38:59;99203.38;;;3.20;85.47
34235;BME280;20500;49.856;20.290;2022-11-15T01:42:05;99205.55;;;3.20;85.67
34235;BME280;20500;49.856;20.290;2022-11-15T01:45:15;99204.70;;;3.19;85.38
34235;BME280;20500;49.856;20.290;2022-11-15T01:48:21;99200.71;;;3.15;85.29
34235;BME280;20500;49.856;20.290;2022-11-15T01:51:30;99201.13;;;3.13;85.54
34235;BME280;20500;49.856;20.290;2022-11-15T01:54:37;99197.82;;;3.14;85.58
34235;BME280;20500;49.856;20.290;2022-11-15T01:57:44;99195.86;;;3.13;85.28
34235;BME280;20500;49.856;20.290;2022-11-15T02:00:53;99200.77;;;3.10;85.28
34235;BME280;20500;49.856;20.290;2022-11-15T02:04:00;99194.80;;;3.09;85.51
34235;BME280;20500;49.856;20.290;2022-11-15T02:07:09;99188.64;;;3.06;85.34
34235;BME280;20500;49.856;20.290;2022-11-15T02:10:19;99190.17;;;3.02;85.26
34235;BME280;20500;49.856;20.290;2022-11-15T02:13:26;99187.60;;;2.99;85.14
34235;BME280;20500;49.856;20.290;2022-11-15T02:16:39;99182.91;;;2.95;85.07
34235;BME280;20500;49.856;20.290;2022-11-15T02:23:53;99182.95;;;2.86;85.09
34235;BME280;20500;49.856;20.290;2022-11-15T02:30:47;99179.90;;;2.76;85.06
34235;BME280;20500;49.856;20.290;2022-11-15T02:34:02;99179.36;;;2.74;85.06
34235;BME280;20500;49.856;20.290;2022-11-15T02:37:14;99182.08;;;2.73;85.12
34235;BME280;20500;49.856;20.290;2022-11-15T02:40:31;99179.40;;;2.71;85.06
34235;BME280;20500;49.856;20.290;2022-11-15T02:43:45;99176.64;;;2.70;85.25
34235;BME280;20500;49.856;20.290;2022-11-15T02:47:05;99170.73;;;2.70;85.24
34235;BME280;20500;49.856;20.290;2022-11-15T02:50:21;99173.34;;;2.71;85.23
34235;BME280;20500;49.856;20.290;2022-11-15T02:53:30;99177.10;;;2.71;85.10
34235;BME280;20500;49.856;20.290;2022-11-15T02:56:36;99179.12;;;2.73;85.20
34235;BME280;20500;49.856;20.290;2022-11-15T03:00:03;99172.92;;;2.72;85.06
34235;BME280;20500;49.856;20.290;2022-11-15T03:03:37;99175.80;;;2.67;85.22
34235;BME280;20500;49.856;20.290;2022-11-15T03:06:52;99169.63;;;2.66;85.10
34235;BME280;20500;49.856;20.290;2022-11-15T03:10:05;99162.83;;;2.64;85.12
34235;BME280;20500;49.856;20.290;2022-11-15T03:13:21;99161.06;;;2.63;85.10
34235;BME280;20500;49.856;20.290;2022-11-15T03:16:33;99163.25;;;2.65;85.06
34235;BME280;20500;49.856;20.290;2022-11-15T03:19:46;99160.31;;;2.64;84.97
34235;BME280;20500;49.856;20.290;2022-11-15T03:22:54;99159.25;;;2.59;84.96
34235;BME280;20500;49.856;20.290;2022-11-15T03:26:02;99157.45;;;2.57;85.08
34235;BME280;20500;49.856;20.290;2022-11-15T03:29:14;99153.95;;;2.57;85.15
34235;BME280;20500;49.856;20.290;2022-11-15T03:32:25;99148.59;;;2.58;85.13
34235;BME280;20500;49.856;20.290;2022-11-15T03:35:35;99142.61;;;2.57;84.89
34235;BME280;20500;49.856;20.290;2022-11-15T03:38:43;99139.50;;;2.51;84.79
34235;BME280;20500;49.856;20.290;2022-11-15T03:41:56;99136.23;;;2.48;84.88
34235;BME280;20500;49.856;20.290;2022-11-15T03:45:11;99132.98;;;2.42;84.79
34235;BME280;20500;49.856;20.290;2022-11-15T03:48:22;99126.77;;;2.37;84.78
34235;BME280;20500;49.856;20.290;2022-11-15T03:51:30;99123.09;;;2.33;84.75
34235;BME280;20500;49.856;20.290;2022-11-15T03:54:36;99118.96;;;2.27;84.41
34235;BME280;20500;49.856;20.290;2022-11-15T03:57:42;99115.23;;;2.16;84.32
34235;BME280;20500;49.856;20.290;2022-11-15T04:00:48;99109.21;;;2.05;84.30
34235;BME280;20500;49.856;20.290;2022-11-15T04:03:54;99103.80;;;1.96;84.41
34235;BME280;20500;49.856;20.290;2022-11-15T04:06:59;99100.15;;;1.93;84.58
34235;BME280;20500;49.856;20.290;2022-11-15T04:10:07;99098.02;;;1.88;84.66
34235;BME280;20500;49.856;20.290;2022-11-15T04:13:13;99094.14;;;1.86;84.62
34235;BME280;20500;49.856;20.290;2022-11-15T04:16:19;99089.77;;;1.82;84.62
34235;BME280;20500;49.856;20.290;2022-11-15T04:19:24;99085.95;;;1.78;84.44
34235;BME280;20500;49.856;20.290;2022-11-15T04:22:55;99084.22;;;1.76;84.45
34235;BME280;20500;49.856;20.290;2022-11-15T04:26:20;99077.02;;;1.74;84.43
34235;BME280;20500;49.856;20.290;2022-11-15T04:29:27;99074.84;;;1.70;84.34
34235;BME280;20500;49.856;20.290;2022-11-15T04:32:41;99069.23;;;1.66;84.28
34235;BME280;20500;49.856;20.290;2022-11-15T04:35:47;99066.34;;;1.62;84.29
34235;BME280;20500;49.856;20.290;2022-11-15T04:39:14;99060.23;;;1.61;84.34
34235;BME280;20500;49.856;20.290;2022-11-15T04:42:20;99054.55;;;1.58;84.20
34235;BME280;20500;49.856;20.290;2022-11-15T04:45:25;99048.10;;;1.54;84.20
34235;BME280;20500;49.856;20.290;2022-11-15T04:48:31;99047.75;;;1.52;84.24
34235;BME280;20500;49.856;20.290;2022-11-15T04:51:37;99046.24;;;1.50;84.20
34235;BME280;20500;49.856;20.290;2022-11-15T04:54:43;99038.89;;;1.46;84.16
34235;BME280;20500;49.856;20.290;2022-11-15T04:57:49;99034.23;;;1.44;84.14
34235;BME280;20500;49.856;20.290;2022-11-15T05:01:08;99030.70;;;1.43;84.05
34235;BME280;20500;49.856;20.290;2022-11-15T05:04:14;99028.36;;;1.41;84.10
34235;BME280;20500;49.856;20.290;2022-11-15T05:07:26;99024.96;;;1.37;84.07
34235;BME280;20500;49.856;20.290;2022-11-15T05:10:32;99013.83;;;1.33;84.06
34235;BME280;20500;49.856;20.290;2022-11-15T05:13:37;99012.21;;;1.33;84.25
34235;BME280;20500;49.856;20.290;2022-11-15T05:16:43;99007.25;;;1.31;84.09
34235;BME280;20500;49.856;20.290;2022-11-15T05:19:49;99003.46;;;1.29;84.19
34235;BME280;20500;49.856;20.290;2022-11-15T05:22:56;99000.87;;;1.28;84.27
34235;BME280;20500;49.856;20.290;2022-11-15T05:26:02;99005.90;;;1.28;84.27
34235;BME280;20500;49.856;20.290;2022-11-15T05:29:12;99003.61;;;1.27;84.24
34235;BME280;20500;49.856;20.290;2022-11-15T05:32:19;98999.17;;;1.29;84.27
34235;BME280;20500;49.856;20.290;2022-11-15T05:35:32;98997.98;;;1.26;84.06
34235;BME280;20500;49.856;20.290;2022-11-15T05:38:39;98996.23;;;1.24;84.22
34235;BME280;20500;49.856;20.290;2022-11-15T05:41:47;98994.88;;;1.25;84.18
34235;BME280;20500;49.856;20.290;2022-11-15T05:44:54;98992.64;;;1.26;84.30
34235;BME280;20500;49.856;20.290;2022-11-15T05:48:03;98992.79;;;1.26;84.24
34235;BME280;20500;49.856;20.290;2022-11-15T05:51:13;98991.97;;;1.25;84.27
34235;BME280;20500;49.856;20.290;2022-11-15T05:54:21;98990.13;;;1.21;84.13
34235;BME280;20500;49.856;20.290;2022-11-15T05:57:28;98991.65;;;1.18;84.03
34235;BME280;20500;49.856;20.290;2022-11-15T06:00:34;98989.77;;;1.15;84.13
34235;BME280;20500;49.856;20.290;2022-11-15T06:03:39;98989.61;;;1.15;84.29
34235;BME280;20500;49.856;20.290;2022-11-15T06:06:45;98989.63;;;1.14;84.31
34235;BME280;20500;49.856;20.290;2022-11-15T06:09:51;98985.73;;;1.14;84.21
34235;BME280;20500;49.856;20.290;2022-11-15T06:13:01;98988.31;;;1.15;84.36
34235;BME280;20500;49.856;20.290;2022-11-15T06:16:08;98989.92;;;1.17;84.44
34235;BME280;20500;49.856;20.290;2022-11-15T06:19:13;98987.36;;;1.16;84.35
34235;BME280;20500;49.856;20.290;2022-11-15T06:22:19;98990.36;;;1.19;84.47
34235;BME280;20500;49.856;20.290;2022-11-15T06:25:24;98987.74;;;1.20;84.67
34235;BME280;20500;49.856;20.290;2022-11-15T06:28:31;98990.79;;;1.22;84.63
34235;BME280;20500;49.856;20.290;2022-11-15T06:31:37;98992.39;;;1.22;84.59
34235;BME280;20500;49.856;20.290;2022-11-15T06:34:43;98991.16;;;1.20;84.53
34235;BME280;20500;49.856;20.290;2022-11-15T06:37:48;98990.67;;;1.21;84.70
34235;BME280;20500;49.856;20.290;2022-11-15T06:40:54;98995.31;;;1.24;84.73
34235;BME280;20500;49.856;20.290;2022-11-15T06:44:00;98993.64;;;1.29;84.53
34235;BME280;20500;49.856;20.290;2022-11-15T06:47:05;98996.34;;;1.33;84.54
34235;BME280;20500;49.856;20.290;2022-11-15T06:50:12;98998.27;;;1.38;84.66
34235;BME280;20500;49.856;20.290;2022-11-15T06:53:18;99000.91;;;1.45;84.66
34235;BME280;20500;49.856;20.290;2022-11-15T06:56:24;98997.39;;;1.48;84.60
34235;BME280;20500;49.856;20.290;2022-11-15T06:59:29;98996.54;;;1.50;84.53
34235;BME280;20500;49.856;20.290;2022-11-15T07:02:42;98997.95;;;1.50;84.53
34235;BME280;20500;49.856;20.290;2022-11-15T07:05:53;98995.45;;;1.51;84.51
34235;BME280;20500;49.856;20.290;2022-11-15T07:08:59;98993.41;;;1.47;84.30
34235;BME280;20500;49.856;20.290;2022-11-15T07:12:08;98993.00;;;1.45;84.54
34235;BME280;20500;49.856;20.290;2022-11-15T07:15:12;98990.34;;;1.47;84.72
34235;BME280;20500;49.856;20.290;2022-11-15T07:18:17;98988.05;;;1.49;84.78
34235;BME280;20500;49.856;20.290;2022-11-15T07:21:23;98987.38;;;1.51;84.73
34235;BME280;20500;49.856;20.290;2022-11-15T07:24:31;98987.73;;;1.53;84.65
34235;BME280;20500;49.856;20.290;2022-11-15T07:27:36;98984.60;;;1.56;84.67
34235;BME280;20500;49.856;20.290;2022-11-15T07:30:43;98978.83;;;1.61;84.73
34235;BME280;20500;49.856;20.290;2022-11-15T07:33:48;98972.62;;;1.65;84.73
34235;BME280;20500;49.856;20.290;2022-11-15T07:36:54;98971.66;;;1.67;84.74
34235;BME280;20500;49.856;20.290;2022-11-15T07:40:00;98971.31;;;1.69;84.62
34235;BME280;20500;49.856;20.290;2022-11-15T07:43:08;98967.20;;;1.67;84.45
34235;BME280;20500;49.856;20.290;2022-11-15T07:46:14;98964.57;;;1.58;84.59
34235;BME280;20500;49.856;20.290;2022-11-15T07:49:20;98959.64;;;1.57;84.57
34235;BME280;20500;49.856;20.290;2022-11-15T07:52:26;98953.58;;;1.57;84.84
34235;BME280;20500;49.856;20.290;2022-11-15T07:55:31;98951.27;;;1.59;84.71
34235;BME280;20500;49.856;20.290;2022-11-15T07:58:37;98939.41;;;1.60;84.90
34235;BME280;20500;49.856;20.290;2022-11-15T08:01:43;98936.38;;;1.64;85.02
34235;BME280;20500;49.856;20.290;2022-11-15T08:04:49;98934.19;;;1.71;85.10
34235;BME280;20500;49.856;20.290;2022-11-15T08:07:56;98938.34;;;1.77;85.17
34235;BME280;20500;49.856;20.290;2022-11-15T08:11:02;98934.98;;;1.80;85.08
34235;BME280;20500;49.856;20.290;2022-11-15T08:14:08;98927.29;;;1.82;85.11
34235;BME280;20500;49.856;20.290;2022-11-15T08:17:14;98925.48;;;1.85;85.00
34235;BME280;20500;49.856;20.290;2022-11-15T08:20:19;98922.36;;;1.86;85.08
34235;BME280;20500;49.856;20.290;2022-11-15T08:23:25;98924.14;;;1.86;85.26
34235;BME280;20500;49.856;20.290;2022-11-15T08:26:32;98923.20;;;1.92;85.44
34235;BME280;20500;49.856;20.290;2022-11-15T08:29:37;98921.08;;;2.01;85.56
34235;BME280;20500;49.856;20.290;2022-11-15T08:32:43;98915.13;;;2.09;85.71
34235;BME280;20500;49.856;20.290;2022-11-15T08:35:49;98911.10;;;2.17;85.56
34235;BME280;20500;49.856;20.290;2022-11-15T08:38:55;98904.92;;;2.22;85.73
34235;BME280;20500;49.856;20.290;2022-11-15T08:42:01;98901.40;;;2.29;85.77
34235;BME280;20500;49.856;20.290;2022-11-15T08:45:09;98901.15;;;2.38;85.89
34235;BME280;20500;49.856;20.290;2022-11-15T08:48:15;98903.52;;;2.48;85.89
34235;BME280;20500;49.856;20.290;2022-11-15T08:51:20;98901.60;;;2.58;86.09
34235;BME280;20500;49.856;20.290;2022-11-15T08:54:26;98898.12;;;2.66;86.15
34235;BME280;20500;49.856;20.290;2022-11-15T08:57:32;98901.10;;;2.75;86.24
34235;BME280;20500;49.856;20.290;2022-11-15T09:00:38;98898.86;;;2.84;86.21
34235;BME280;20500;49.856;20.290;2022-11-15T09:03:43;98894.87;;;2.95;86.56
34235;BME280;20500;49.856;20.290;2022-11-15T09:06:49;98894.92;;;3.06;86.78
34235;BME280;20500;49.856;20.290;2022-11-15T09:09:55;98899.50;;;3.19;86.81
34235;BME280;20500;49.856;20.290;2022-11-15T09:13:00;98901.30;;;3.31;86.89
34235;BME280;20500;49.856;20.290;2022-11-15T09:16:07;98895.41;;;3.42;86.97
34235;BME280;20500;49.856;20.290;2022-11-15T09:19:13;98886.18;;;3.55;87.14
34235;BME280;20500;49.856;20.290;2022-11-15T09:22:21;98878.18;;;3.69;87.17
34235;BME280;20500;49.856;20.290;2022-11-15T09:25:28;98876.33;;;3.81;87.31
34235;BME280;20500;49.856;20.290;2022-11-15T09:28:34;98874.96;;;3.94;87.27
34235;BME280;20500;49.856;20.290;2022-11-15T09:31:41;98871.08;;;4.08;87.55
34235;BME280;20500;49.856;20.290;2022-11-15T09:34:47;98865.96;;;4.22;87.56
34235;BME280;20500;49.856;20.290;2022-11-15T09:37:52;98858.40;;;4.36;87.71
34235;BME280;20500;49.856;20.290;2022-11-15T09:41:17;98855.45;;;4.50;87.86
34235;BME280;20500;49.856;20.290;2022-11-15T09:44:45;98853.39;;;4.63;87.93
34235;BME280;20500;49.856;20.290;2022-11-15T09:48:13;98845.89;;;4.77;88.17
34235;BME280;20500;49.856;20.290;2022-11-15T09:51:27;98837.40;;;4.94;88.22
34235;BME280;20500;49.856;20.290;2022-11-15T09:54:35;98832.38;;;5.10;88.33
34235;BME280;20500;49.856;20.290;2022-11-15T09:58:03;98825.98;;;5.29;88.48
34235;BME280;20500;49.856;20.290;2022-11-15T10:01:16;98821.91;;;5.44;88.53
34235;BME280;20500;49.856;20.290;2022-11-15T10:04:25;98817.55;;;5.59;88.71
34235;BME280;20500;49.856;20.290;2022-11-15T10:07:37;98812.44;;;5.72;88.79
34235;BME280;20500;49.856;20.290;2022-11-15T10:10:47;98811.99;;;5.85;88.68
34235;BME280;20500;49.856;20.290;2022-11-15T10:14:16;98810.02;;;5.99;88.82
34235;BME280;20500;49.856;20.290;2022-11-15T10:17:40;98805.20;;;6.11;88.86
34235;BME280;20500;49.856;20.290;2022-11-15T10:20:51;98804.23;;;6.25;88.83
34235;BME280;20500;49.856;20.290;2022-11-15T10:23:59;98803.52;;;6.41;89.00
34235;BME280;20500;49.856;20.290;2022-11-15T10:27:15;98797.05;;;6.54;89.27
34235;BME280;20500;49.856;20.290;2022-11-15T10:30:22;98790.39;;;6.69;89.03
34235;BME280;20500;49.856;20.290;2022-11-15T10:33:32;98786.27;;;6.84;89.11
34235;BME280;20500;49.856;20.290;2022-11-15T10:36:38;98784.40;;;6.99;89.32
34235;BME280;20500;49.856;20.290;2022-11-15T10:40:06;98788.60;;;7.15;89.43
34235;BME280;20500;49.856;20.290;2022-11-15T10:43:21;98785.23;;;7.31;89.51
34235;BME280;20500;49.856;20.290;2022-11-15T10:46:30;98774.35;;;7.53;89.80
34235;BME280;20500;49.856;20.290;2022-11-15T10:53:37;98766.80;;;7.93;89.86
34235;BME280;20500;49.856;20.290;2022-11-15T10:56:50;98761.44;;;8.07;89.82
34235;BME280;20500;49.856;20.290;2022-11-15T10:59:58;98755.43;;;8.20;89.75
34235;BME280;20500;49.856;20.290;2022-11-15T11:03:08;98749.89;;;8.34;89.76
34235;BME280;20500;49.856;20.290;2022-11-15T11:06:27;98743.77;;;8.48;89.83
34235;BME280;20500;49.856;20.290;2022-11-15T11:09:32;98737.89;;;8.63;89.70
34235;BME280;20500;49.856;20.290;2022-11-15T11:12:38;98733.04;;;8.75;89.79
34235;BME280;20500;49.856;20.290;2022-11-15T11:15:45;98726.96;;;8.85;89.55
34235;BME280;20500;49.856;20.290;2022-11-15T11:19:02;98724.26;;;8.94;89.45
34235;BME280;20500;49.856;20.290;2022-11-15T11:22:17;98724.27;;;9.03;89.20
34235;BME280;20500;49.856;20.290;2022-11-15T11:25:30;98719.48;;;9.12;88.97
34235;BME280;20500;49.856;20.290;2022-11-15T11:28:45;98713.05;;;9.22;89.01
34235;BME280;20500;49.856;20.290;2022-11-15T11:32:01;98714.27;;;9.31;88.88
34235;BME280;20500;49.856;20.290;2022-11-15T11:35:13;98711.75;;;9.40;88.74
34235;BME280;20500;49.856;20.290;2022-11-15T11:38:31;98709.86;;;9.47;88.55
34235;BME280;20500;49.856;20.290;2022-11-15T11:41:52;98705.22;;;9.55;88.43
34235;BME280;20500;49.856;20.290;2022-11-15T11:45:03;98701.31;;;9.67;88.61
34235;BME280;20500;49.856;20.290;2022-11-15T11:48:14;98698.34;;;9.81;88.85
34235;BME280;20500;49.856;20.290;2022-11-15T11:51:28;98695.71;;;9.95;88.83
34235;BME280;20500;49.856;20.290;2022-11-15T11:58:02;98691.18;;;10.15;88.35
34235;BME280;20500;49.856;20.290;2022-11-15T12:01:14;98689.38;;;10.26;88.22
34235;BME280;20500;49.856;20.290;2022-11-15T12:04:24;98689.13;;;10.33;87.97
34235;BME280;20500;49.856;20.290;2022-11-15T12:07:33;98689.04;;;10.35;87.78
34235;BME280;20500;49.856;20.290;2022-11-15T12:10:41;98686.30;;;10.38;87.80
34235;BME280;20500;49.856;20.290;2022-11-15T12:13:53;98685.34;;;10.44;87.82
34235;BME280;20500;49.856;20.290;2022-11-15T12:17:02;98683.48;;;10.53;87.92
34235;BME280;20500;49.856;20.290;2022-11-15T12:20:17;98687.89;;;10.64;88.08
34235;BME280;20500;49.856;20.290;2022-11-15T12:23:26;98689.46;;;10.73;87.76
34235;BME280;20500;49.856;20.290;2022-11-15T12:26:40;98680.70;;;10.78;87.51
34235;BME280;20500;49.856;20.290;2022-11-15T12:29:49;98678.91;;;10.82;87.50
34235;BME280;20500;49.856;20.290;2022-11-15T12:32:58;98676.95;;;10.83;86.90
34235;BME280;20500;49.856;20.290;2022-11-15T12:36:08;98680.29;;;10.82;86.92
34235;BME280;20500;49.856;20.290;2022-11-15T12:39:16;98675.16;;;10.85;86.90
34235;BME280;20500;49.856;20.290;2022-11-15T12:42:41;98675.84;;;10.86;86.93
34235;BME280;20500;49.856;20.290;2022-11-15T12:45:46;98673.61;;;10.84;86.50
34235;BME280;20500;49.856;20.290;2022-11-15T12:48:54;98665.07;;;10.80;86.20
34235;BME280;20500;49.856;20.290;2022-11-15T12:52:10;98659.31;;;10.75;86.30
34235;BME280;20500;49.856;20.290;2022-11-15T12:55:32;98654.17;;;10.76;86.15
34235;BME280;20500;49.856;20.290;2022-11-15T12:58:44;98656.31;;;10.76;86.17
34235;BME280;20500;49.856;20.290;2022-11-15T13:01:58;98654.02;;;10.77;86.16
34235;BME280;20500;49.856;20.290;2022-11-15T13:05:56;98656.73;;;10.80;85.94
34235;BME280;20500;49.856;20.290;2022-11-15T13:09:02;98653.85;;;10.81;85.55
34235;BME280;20500;49.856;20.290;2022-11-15T13:12:10;98651.25;;;10.77;85.44
34235;BME280;20500;49.856;20.290;2022-11-15T13:15:53;98649.58;;;10.73;85.27
34235;BME280;20500;49.856;20.290;2022-11-15T13:19:02;98643.73;;;10.67;85.18
34235;BME280;20500;49.856;20.290;2022-11-15T13:22:11;98641.89;;;10.63;85.19
34235;BME280;20500;49.856;20.290;2022-11-15T13:25:51;98635.30;;;10.63;85.17
34235;BME280;20500;49.856;20.290;2022-11-15T13:29:00;98628.02;;;10.63;85.20
34235;BME280;20500;49.856;20.290;2022-11-15T13:32:12;98628.79;;;10.62;84.99
34235;BME280;20500;49.856;20.290;2022-11-15T13:35:23;98630.02;;;10.61;84.85
34235;BME280;20500;49.856;20.290;2022-11-15T13:38:31;98627.60;;;10.62;84.62
34235;BME280;20500;49.856;20.290;2022-11-15T13:41:47;98624.51;;;10.62;84.37
34235;BME280;20500;49.856;20.290;2022-11-15T13:44:58;98623.28;;;10.61;84.29
34235;BME280;20500;49.856;20.290;2022-11-15T13:48:04;98618.58;;;10.60;84.16
34235;BME280;20500;49.856;20.290;2022-11-15T13:51:17;98616.27;;;10.57;84.03
34235;BME280;20500;49.856;20.290;2022-11-15T13:54:27;98616.75;;;10.54;84.07
34235;BME280;20500;49.856;20.290;2022-11-15T13:57:41;98612.70;;;10.52;83.93
34235;BME280;20500;49.856;20.290;2022-11-15T14:00:48;98604.97;;;10.48;83.91
34235;BME280;20500;49.856;20.290;2022-11-15T14:04:04;98602.73;;;10.46;83.91
34235;BME280;20500;49.856;20.290;2022-11-15T14:07:18;98603.30;;;10.42;83.71
34235;BME280;20500;49.856;20.290;2022-11-15T14:10:29;98603.21;;;10.37;83.76
34235;BME280;20500;49.856;20.290;2022-11-15T14:13:36;98600.11;;;10.34;83.55
34235;BME280;20500;49.856;20.290;2022-11-15T14:16:43;98597.84;;;10.32;83.45
34235;BME280;20500;49.856;20.290;2022-11-15T14:19:49;98601.59;;;10.24;83.41
34235;BME280;20500;49.856;20.290;2022-11-15T14:22:56;98599.12;;;10.15;83.26
34235;BME280;20500;49.856;20.290;2022-11-15T14:26:02;98596.58;;;10.09;83.13
34235;BME280;20500;49.856;20.290;2022-11-15T14:29:25;98599.33;;;10.02;83.06
34235;BME280;20500;49.856;20.290;2022-11-15T14:32:41;98601.06;;;9.91;82.90
34235;BME280;20500;49.856;20.290;2022-11-15T14:35:48;98598.42;;;9.83;83.09
34235;BME280;20500;49.856;20.290;2022-11-15T14:38:54;98592.35;;;9.82;83.19
34235;BME280;20500;49.856;20.290;2022-11-15T14:42:00;98587.16;;;9.82;82.95
34235;BME280;20500;49.856;20.290;2022-11-15T14:45:12;98578.67;;;9.80;82.91
34235;BME280;20500;49.856;20.290;2022-11-15T14:48:19;98577.11;;;9.78;82.94
34235;BME280;20500;49.856;20.290;2022-11-15T14:51:24;98575.42;;;9.77;82.88
34235;BME280;20500;49.856;20.290;2022-11-15T14:54:30;98578.93;;;9.73;82.84
34235;BME280;20500;49.856;20.290;2022-11-15T14:57:36;98576.20;;;9.69;82.67
34235;BME280;20500;49.856;20.290;2022-11-15T15:00:42;98577.60;;;9.62;82.64
34235;BME280;20500;49.856;20.290;2022-11-15T15:03:48;98573.36;;;9.54;82.63
34235;BME280;20500;49.856;20.290;2022-11-15T15:06:55;98573.50;;;9.50;82.67
34235;BME280;20500;49.856;20.290;2022-11-15T15:10:01;98568.75;;;9.47;82.64
34235;BME280;20500;49.856;20.290;2022-11-15T15:13:25;98568.73;;;9.44;82.73
34235;BME280;20500;49.856;20.290;2022-11-15T15:16:33;98562.39;;;9.41;82.61
34235;BME280;20500;49.856;20.290;2022-11-15T15:19:38;98556.41;;;9.36;82.45
34235;BME280;20500;49.856;20.290;2022-11-15T15:22:44;98551.55;;;9.31;82.55
34235;BME280;20500;49.856;20.290;2022-11-15T15:25:50;98547.80;;;9.29;82.57
34235;BME280;20500;49.856;20.290;2022-11-15T15:28:57;98544.02;;;9.25;82.41
34235;BME280;20500;49.856;20.290;2022-11-15T15:32:02;98545.56;;;9.22;82.40
34235;BME280;20500;49.856;20.290;2022-11-15T15:35:11;98546.36;;;9.17;82.46
34235;BME280;20500;49.856;20.290;2022-11-15T15:38:16;98541.95;;;9.15;82.50
34235;BME280;20500;49.856;20.290;2022-11-15T15:41:22;98543.13;;;9.12;82.54
34235;BME280;20500;49.856;20.290;2022-11-15T15:44:28;98544.01;;;9.08;82.62
34235;BME280;20500;49.856;20.290;2022-11-15T15:47:34;98545.46;;;9.05;82.61
34235;BME280;20500;49.856;20.290;2022-11-15T15:50:40;98539.45;;;8.99;82.57
34235;BME280;20500;49.856;20.290;2022-11-15T15:53:47;98537.23;;;8.97;82.54
34235;BME280;20500;49.856;20.290;2022-11-15T15:56:55;98536.55;;;8.95;82.48
34235;BME280;20500;49.856;20.290;2022-11-15T16:00:00;98535.13;;;8.94;82.53
34235;BME280;20500;49.856;20.290;2022-11-15T16:03:06;98534.94;;;8.93;82.43
34235;BME280;20500;49.856;20.290;2022-11-15T16:06:34;98527.13;;;8.86;82.42
34235;BME280;20500;49.856;20.290;2022-11-15T16:09:40;98521.98;;;8.79;82.56
34235;BME280;20500;49.856;20.290;2022-11-15T16:13:04;98516.70;;;8.77;82.43
34235;BME280;20500;49.856;20.290;2022-11-15T16:16:14;98515.45;;;8.76;82.45
34235;BME280;20500;49.856;20.290;2022-11-15T16:19:19;98515.16;;;8.74;82.51
34235;BME280;20500;49.856;20.290;2022-11-15T16:22:25;98512.59;;;8.72;82.53
34235;BME280;20500;49.856;20.290;2022-11-15T16:25:36;98514.17;;;8.73;82.54
34235;BME280;20500;49.856;20.290;2022-11-15T16:28:43;98515.17;;;8.72;82.55
34235;BME280;20500;49.856;20.290;2022-11-15T16:31:48;98512.45;;;8.69;82.51
34235;BME280;20500;49.856;20.290;2022-11-15T16:34:54;98510.83;;;8.66;82.63
34235;BME280;20500;49.856;20.290;2022-11-15T16:38:00;98513.41;;;8.64;82.64
34235;BME280;20500;49.856;20.290;2022-11-15T16:41:06;98511.73;;;8.63;82.58
34235;BME280;20500;49.856;20.290;2022-11-15T16:44:11;98508.01;;;8.63;82.67
34235;BME280;20500;49.856;20.290;2022-11-15T16:47:18;98506.84;;;8.61;82.61
34235;BME280;20500;49.856;20.290;2022-11-15T16:50:26;98497.67;;;8.59;82.63
34235;BME280;20500;49.856;20.290;2022-11-15T16:53:32;98497.02;;;8.55;82.56
34235;BME280;20500;49.856;20.290;2022-11-15T16:56:38;98499.30;;;8.51;82.65